createdAt,value
2022-10-09T00:01:22.817Z,67.97
2022-10-09T00:03:51.355Z,67.06
2022-10-09T00:06:24.812Z,67.52
2022-10-09T00:08:52.731Z,67.42
2022-10-09T00:11:28.479Z,67.72
2022-10-09T00:13:56.630Z,67.61
2022-10-09T00:16:24.332Z,67.66
2022-10-09T00:18:53.271Z,67.97
2022-10-09T00:21:32.408Z,67.34
2022-10-09T00:24:02.731Z,67.79
2022-10-09T00:26:30.268Z,67.98
2022-10-09T00:28:57.952Z,68.10
2022-10-09T00:31:25.679Z,67.91
2022-10-09T00:33:53.361Z,68.01
2022-10-09T00:36:23.928Z,68.17
2022-10-09T00:38:51.901Z,67.72
2022-10-09T00:41:25.165Z,67.76
2022-10-09T00:43:57.356Z,67.97
2022-10-09T00:46:42.151Z,67.98
2022-10-09T00:49:22.116Z,68.52
2022-10-09T00:51:51.379Z,68.35
2022-10-09T00:54:22.970Z,68.63
2022-10-09T00:56:51.115Z,68.43
2022-10-09T00:59:19.665Z,68.40
2022-10-09T01:01:47.258Z,68.32
2022-10-09T01:04:15.315Z,68.30
2022-10-09T01:07:07.237Z,68.59
2022-10-09T01:10:03.631Z,68.73
2022-10-09T01:12:52.117Z,68.16
2022-10-09T01:15:39.279Z,68.70
2022-10-09T01:18:36.281Z,68.98
2022-10-09T01:21:17.073Z,68.61
2022-10-09T01:24:06.067Z,68.51
2022-10-09T01:26:56.542Z,68.57
2022-10-09T01:29:27.061Z,68.61
2022-10-09T01:31:56.138Z,68.76
2022-10-09T01:34:24.239Z,68.76
2022-10-09T01:36:52.895Z,68.92
2022-10-09T01:39:22.819Z,68.86
2022-10-09T01:41:52.543Z,69.01
2022-10-09T01:44:23.327Z,68.69
2022-10-09T01:46:51.027Z,68.57
2022-10-09T01:49:39.338Z,68.96
2022-10-09T01:52:48.473Z,68.87
2022-10-09T01:55:35.930Z,69.07
2022-10-09T01:58:18.104Z,69.06
2022-10-09T02:01:16.662Z,69.25
2022-10-09T02:03:48.558Z,69.25
2022-10-09T02:06:18.019Z,69.28
2022-10-09T02:08:51.542Z,69.65
2022-10-09T02:11:19.418Z,69.38
2022-10-09T02:13:48.413Z,69.34
2022-10-09T02:16:15.787Z,69.35
2022-10-09T02:18:53.931Z,69.65
2022-10-09T02:21:24.737Z,70.00
2022-10-09T02:23:55.071Z,70.14
2022-10-09T02:26:23.220Z,70.23
2022-10-09T02:28:51.504Z,70.28
2022-10-09T02:31:30.356Z,70.61
2022-10-09T02:34:00.178Z,70.18
2022-10-09T02:36:28.512Z,69.87
2022-10-09T02:38:56.504Z,70.03
2022-10-09T02:41:24.778Z,69.77
2022-10-09T02:43:52.619Z,69.60
2022-10-09T02:46:20.219Z,69.62
2022-10-09T02:48:47.718Z,69.70
2022-10-09T02:51:15.805Z,69.93
2022-10-09T02:53:43.707Z,69.94
2022-10-09T02:56:11.420Z,69.62
2022-10-09T02:58:39.662Z,69.65
2022-10-09T03:01:07.242Z,69.59
2022-10-09T03:03:34.745Z,69.50
2022-10-09T03:06:05.464Z,69.70
2022-10-09T03:08:33.175Z,69.69
2022-10-09T03:11:00.592Z,69.65
2022-10-09T03:13:28.107Z,69.19
2022-10-09T03:15:55.563Z,69.52
2022-10-09T03:18:23.066Z,69.14
2022-10-09T03:20:50.445Z,69.15
2022-10-09T03:23:17.909Z,69.38
2022-10-09T03:25:45.271Z,69.40
2022-10-09T03:28:15.267Z,69.66
2022-10-09T03:30:42.796Z,69.16
2022-10-09T03:33:10.172Z,68.99
2022-10-09T03:35:37.619Z,68.79
2022-10-09T03:38:05.027Z,69.16
2022-10-09T03:40:32.544Z,69.02
2022-10-09T03:42:59.943Z,68.87
2022-10-09T03:45:27.398Z,68.55
2022-10-09T03:47:54.802Z,69.02
2022-10-09T03:50:22.235Z,68.42
2022-10-09T03:52:49.900Z,68.50
2022-10-09T03:55:17.597Z,68.45
2022-10-09T03:57:44.998Z,68.31
2022-10-09T04:00:13.025Z,68.18
2022-10-09T04:02:40.497Z,68.65
2022-10-09T04:05:08.646Z,68.01
2022-10-09T04:07:36.028Z,68.02
2022-10-09T04:10:04.427Z,68.15
2022-10-09T04:12:31.818Z,68.08
2022-10-09T04:14:59.310Z,68.11
2022-10-09T04:17:26.843Z,68.12
2022-10-09T04:19:54.208Z,67.95
2022-10-09T04:22:21.611Z,67.94
2022-10-09T04:24:49.071Z,67.64
2022-10-09T04:27:16.882Z,67.65
2022-10-09T04:29:44.311Z,67.46
2022-10-09T04:32:11.728Z,67.00
2022-10-09T04:34:39.233Z,67.08
2022-10-09T04:37:06.666Z,67.01
2022-10-09T04:39:34.047Z,66.76
2022-10-09T04:42:01.458Z,66.57
2022-10-09T04:44:28.898Z,66.18
2022-10-09T04:46:56.326Z,66.57
2022-10-09T04:49:23.732Z,66.88
2022-10-09T04:51:51.249Z,67.19
2022-10-09T04:54:18.747Z,66.83
2022-10-09T04:56:46.177Z,66.88
2022-10-09T04:59:13.644Z,66.61
2022-10-09T05:01:41.190Z,66.46
2022-10-09T05:04:09.231Z,66.46
2022-10-09T05:06:36.663Z,66.58
2022-10-09T05:09:04.381Z,66.18
2022-10-09T05:11:31.784Z,65.74
2022-10-09T05:13:59.776Z,65.23
2022-10-09T05:16:29.255Z,64.90
2022-10-09T05:18:59.083Z,64.46
2022-10-09T05:21:27.886Z,64.01
2022-10-09T05:23:55.779Z,63.20
2022-10-09T05:26:25.053Z,62.51
2022-10-09T05:28:52.780Z,61.50
2022-10-09T05:31:25.921Z,60.90
2022-10-09T05:33:55.119Z,60.43
2022-10-09T05:36:22.655Z,59.76
2022-10-09T05:38:53.043Z,59.06
2022-10-09T05:41:22.761Z,58.30
2022-10-09T05:43:50.430Z,57.47
2022-10-09T05:46:19.444Z,57.17
2022-10-09T05:48:53.259Z,56.27
2022-10-09T05:51:23.704Z,55.93
2022-10-09T05:53:51.445Z,55.49
2022-10-09T05:56:24.857Z,54.47
2022-10-09T05:58:55.235Z,54.73
2022-10-09T06:01:24.914Z,54.66
2022-10-09T06:03:55.695Z,54.01
2022-10-09T06:06:25.546Z,54.40
2022-10-09T06:08:53.665Z,54.17
2022-10-09T06:11:28.462Z,53.70
2022-10-09T06:13:56.656Z,52.96
2022-10-09T06:16:26.991Z,52.28
2022-10-09T06:18:56.004Z,51.71
2022-10-09T06:21:25.437Z,51.02
2022-10-09T06:23:55.858Z,50.05
2022-10-09T06:26:24.582Z,49.65
2022-10-09T06:28:53.150Z,49.36
2022-10-09T06:31:25.579Z,48.73
2022-10-09T06:33:54.211Z,48.30
2022-10-09T06:36:25.188Z,47.50
2022-10-09T06:38:53.809Z,47.70
2022-10-09T06:41:26.640Z,46.60
2022-10-09T06:44:04.415Z,46.82
2022-10-09T06:46:34.871Z,46.55
2022-10-09T06:49:03.842Z,46.21
2022-10-09T06:51:33.148Z,45.54
2022-10-09T06:54:02.695Z,45.40
2022-10-09T06:56:32.080Z,45.94
2022-10-09T06:59:01.405Z,46.27
2022-10-09T07:01:32.232Z,46.65
2022-10-09T07:04:03.011Z,46.68
2022-10-09T07:06:32.049Z,47.00
2022-10-09T07:09:05.485Z,47.33
2022-10-09T07:11:38.423Z,47.04
2022-10-09T07:14:09.716Z,46.61
2022-10-09T07:16:39.945Z,46.89
2022-10-09T07:19:11.290Z,46.55
2022-10-09T07:21:41.504Z,46.52
2022-10-09T07:24:09.538Z,46.02
2022-10-09T07:26:39.559Z,45.82
2022-10-09T07:29:09.220Z,45.83
2022-10-09T07:31:36.822Z,45.43
2022-10-09T07:34:06.349Z,45.18
2022-10-09T07:36:34.194Z,44.65
2022-10-09T07:39:02.714Z,44.47
2022-10-09T07:41:30.818Z,44.44
2022-10-09T07:43:58.729Z,44.56
2022-10-09T07:46:32.234Z,44.39
2022-10-09T07:49:02.078Z,44.74
2022-10-09T07:51:30.527Z,45.15
2022-10-09T07:54:00.083Z,45.15
2022-10-09T07:56:33.190Z,44.40
2022-10-09T07:59:26.859Z,43.37
2022-10-09T08:01:54.407Z,42.78
2022-10-09T08:04:22.091Z,43.09
2022-10-09T08:06:49.827Z,42.39
2022-10-09T08:09:18.492Z,40.41
2022-10-09T08:11:45.971Z,38.05
2022-10-09T08:14:19.015Z,36.98
2022-10-09T08:16:48.275Z,36.43
2022-10-09T08:19:15.825Z,34.36
2022-10-09T08:21:43.370Z,33.80
2022-10-09T08:24:11.666Z,33.39
2022-10-09T08:26:39.143Z,31.97
2022-10-09T08:29:13.828Z,30.82
2022-10-09T08:31:43.580Z,30.22
2022-10-09T08:34:12.171Z,29.07
2022-10-09T08:36:39.675Z,28.75
2022-10-09T08:39:07.219Z,28.33
2022-10-09T08:41:56.330Z,26.54
2022-10-09T08:44:50.482Z,26.62
2022-10-09T08:47:42.963Z,26.53
2022-10-09T08:50:16.687Z,26.15
2022-10-09T08:52:53.322Z,26.25
2022-10-09T08:55:27.568Z,25.32
2022-10-09T08:58:00.069Z,25.25
2022-10-09T09:00:46.159Z,24.96
2022-10-09T09:03:35.179Z,24.92
2022-10-09T09:06:46.432Z,24.02
2022-10-09T09:09:25.740Z,24.03
2022-10-09T09:12:17.383Z,22.58
2022-10-09T09:15:07.165Z,23.21
2022-10-09T09:17:50.231Z,23.24
2022-10-09T09:20:48.319Z,22.40
2022-10-09T09:23:16.661Z,21.96
2022-10-09T09:25:46.320Z,20.80
2022-10-09T09:28:16.964Z,20.91
2022-10-09T09:31:13.477Z,20.93
2022-10-09T09:33:53.214Z,20.26
2022-10-09T09:36:23.212Z,21.68
2022-10-09T09:39:36.266Z,21.12
2022-10-09T09:41:41.358Z,21.05
2022-10-09T09:44:13.813Z,20.53
2022-10-09T09:46:42.392Z,21.37
2022-10-09T09:49:21.480Z,20.98
2022-10-09T09:51:50.000Z,20.97
2022-10-09T09:54:26.744Z,20.74
2022-10-09T09:57:12.964Z,20.35
2022-10-09T09:59:44.043Z,19.99
2022-10-09T10:02:17.653Z,19.21
2022-10-09T10:05:06.525Z,19.12
2022-10-09T10:07:38.999Z,19.46
2022-10-09T10:10:08.168Z,18.76
2022-10-09T10:12:53.032Z,18.82
2022-10-09T10:15:27.459Z,19.43
2022-10-09T10:18:07.568Z,20.17
2022-10-09T10:20:54.996Z,20.30
2022-10-09T10:23:33.458Z,20.10
2022-10-09T10:26:15.091Z,19.00
2022-10-09T10:29:20.786Z,18.64
2022-10-09T10:31:59.727Z,18.38
2022-10-09T10:34:32.161Z,19.03
2022-10-09T10:37:06.221Z,20.34
2022-10-09T10:39:49.639Z,21.36
2022-10-09T10:42:32.141Z,22.72
2022-10-09T10:45:22.640Z,23.67
2022-10-09T10:47:54.400Z,24.78
2022-10-09T10:50:26.616Z,25.63
2022-10-09T10:53:20.435Z,27.08
2022-10-09T10:55:53.013Z,27.41
2022-10-09T10:58:30.719Z,27.16
2022-10-09T11:01:27.691Z,27.21
2022-10-09T11:04:39.903Z,27.29
2022-10-09T11:07:31.790Z,27.86
2022-10-09T11:10:17.787Z,28.08
2022-10-09T11:12:50.913Z,29.17
2022-10-09T11:15:21.397Z,29.27
2022-10-09T11:18:04.219Z,29.59
2022-10-09T11:21:04.203Z,28.82
2022-10-09T11:23:37.559Z,28.06
2022-10-09T11:26:31.064Z,28.57
2022-10-09T11:29:02.169Z,28.44
2022-10-09T11:31:35.912Z,28.42
2022-10-09T11:34:09.748Z,28.49
2022-10-09T11:36:42.391Z,29.48
2022-10-09T11:39:20.517Z,30.19
2022-10-09T11:41:51.338Z,30.77
2022-10-09T11:44:24.866Z,31.60
2022-10-09T11:47:02.893Z,32.41
2022-10-09T11:50:10.336Z,33.30
2022-10-09T11:52:58.896Z,34.24
2022-10-09T11:55:31.973Z,34.18
2022-10-09T11:58:26.133Z,34.43
2022-10-09T12:00:56.484Z,34.99
2022-10-09T12:03:35.961Z,35.87
2022-10-09T12:06:14.930Z,36.10
2022-10-09T12:08:54.964Z,36.74
2022-10-09T12:11:23.762Z,36.66
2022-10-09T12:13:56.169Z,36.97
2022-10-09T12:16:46.118Z,37.23
2022-10-09T12:19:23.426Z,37.69
2022-10-09T12:21:57.136Z,38.03
2022-10-09T12:24:27.979Z,38.08
2022-10-09T12:26:59.842Z,38.30
2022-10-09T12:29:50.799Z,38.33
2022-10-09T12:32:26.979Z,39.10
2022-10-09T12:34:55.819Z,38.95
2022-10-09T12:37:33.928Z,39.65
2022-10-09T12:40:26.863Z,39.20
2022-10-09T12:42:56.482Z,39.66
2022-10-09T12:45:31.171Z,39.93
2022-10-09T12:48:01.054Z,40.03
2022-10-09T12:50:33.526Z,40.56
2022-10-09T12:53:04.825Z,40.53
2022-10-09T12:55:34.941Z,40.88
2022-10-09T12:58:18.699Z,41.27
2022-10-09T13:00:50.430Z,41.03
2022-10-09T13:03:23.672Z,41.92
2022-10-09T13:05:52.185Z,41.63
2022-10-09T13:08:26.818Z,44.01
2022-10-09T13:10:55.656Z,44.43
2022-10-09T13:13:26.895Z,46.03
2022-10-09T13:16:07.006Z,47.63
2022-10-09T13:18:34.502Z,47.38
2022-10-09T13:21:24.546Z,49.02
2022-10-09T13:23:52.524Z,48.67
2022-10-09T13:26:28.732Z,50.98
2022-10-09T13:28:58.491Z,50.38
2022-10-09T13:31:26.601Z,50.76
2022-10-09T13:33:54.237Z,50.90
2022-10-09T13:36:21.732Z,51.34
2022-10-09T13:38:49.534Z,51.91
2022-10-09T13:41:23.788Z,53.19
2022-10-09T13:43:53.740Z,53.34
2022-10-09T13:46:21.300Z,53.47
2022-10-09T13:48:48.749Z,54.02
2022-10-09T13:51:16.196Z,54.25
2022-10-09T13:53:43.601Z,54.98
2022-10-09T13:56:11.183Z,55.58
2022-10-09T13:58:38.639Z,56.08
2022-10-09T14:01:08.801Z,56.76
2022-10-09T14:03:36.670Z,56.68
2022-10-09T14:06:04.450Z,56.88
2022-10-09T14:08:32.221Z,56.99
2022-10-09T14:11:00.927Z,57.72
2022-10-09T14:13:28.902Z,57.61
2022-10-09T14:15:56.339Z,57.86
2022-10-09T14:18:23.931Z,58.00
2022-10-09T14:20:51.412Z,58.25
2022-10-09T14:23:18.856Z,58.59
2022-10-09T14:25:46.373Z,58.99
2022-10-09T14:28:13.904Z,58.82
2022-10-09T14:30:42.657Z,59.11
2022-10-09T14:33:10.249Z,58.92
2022-10-09T14:35:38.374Z,59.38
2022-10-09T14:38:05.858Z,59.98
2022-10-09T14:40:33.282Z,60.78
2022-10-09T14:43:00.819Z,61.15
2022-10-09T14:45:29.139Z,61.40
2022-10-09T14:47:57.104Z,62.27
2022-10-09T14:50:24.569Z,62.62
2022-10-09T14:52:52.441Z,63.23
2022-10-09T14:55:20.058Z,63.74
2022-10-09T14:57:47.559Z,64.44
2022-10-09T15:00:15.461Z,65.14
2022-10-09T15:05:15.322Z,65.89
2022-10-09T15:07:43.479Z,66.27
2022-10-09T15:10:12.409Z,66.69
2022-10-09T15:12:40.632Z,67.12
2022-10-09T15:15:08.638Z,67.45
2022-10-09T15:17:36.233Z,67.87
2022-10-09T15:20:03.951Z,68.20
2022-10-09T15:22:31.374Z,68.32
2022-10-09T15:24:58.910Z,68.41
2022-10-09T15:27:26.477Z,68.88
2022-10-09T15:29:53.985Z,68.80
2022-10-09T15:32:21.499Z,69.12
2022-10-09T15:34:49.062Z,69.39
2022-10-09T15:37:16.586Z,69.44
2022-10-09T15:39:44.116Z,69.87
2022-10-09T15:42:11.602Z,70.02
2022-10-09T15:44:41.669Z,71.25
2022-10-09T15:47:09.336Z,70.32
2022-10-09T15:49:36.763Z,70.88
2022-10-09T15:52:04.382Z,71.24
2022-10-09T15:54:31.892Z,71.04
2022-10-09T15:56:59.453Z,71.02
2022-10-09T15:59:27.010Z,71.03
2022-10-09T16:01:54.492Z,71.30
2022-10-09T16:04:22.050Z,71.37
2022-10-09T16:06:49.563Z,71.65
2022-10-09T16:09:17.345Z,71.70
2022-10-09T16:11:44.854Z,71.86
2022-10-09T16:14:12.367Z,71.76
2022-10-09T16:16:39.829Z,71.94
2022-10-09T16:19:07.763Z,71.94
2022-10-09T16:21:35.248Z,72.12
2022-10-09T16:24:03.040Z,71.93
2022-10-09T16:26:30.579Z,71.98
2022-10-09T16:29:00.569Z,72.39
2022-10-09T16:31:32.005Z,72.39
2022-10-09T16:33:59.635Z,72.05
2022-10-09T16:36:27.691Z,72.27
2022-10-09T16:38:56.446Z,72.45
2022-10-09T16:41:24.427Z,72.53
2022-10-09T16:43:54.842Z,73.14
2022-10-09T16:46:22.748Z,72.62
2022-10-09T16:48:52.072Z,72.78
2022-10-09T16:51:24.999Z,73.36
2022-10-09T16:53:55.007Z,72.72
2022-10-09T16:56:25.161Z,72.91
2022-10-09T16:58:55.783Z,72.80
2022-10-09T17:01:24.348Z,72.95
2022-10-09T17:03:54.446Z,73.03
2022-10-09T17:06:25.015Z,73.00
2022-10-09T17:08:54.694Z,73.15
2022-10-09T17:11:22.926Z,73.05
2022-10-09T17:13:50.552Z,73.10
2022-10-09T17:16:21.804Z,73.59
2022-10-09T17:18:50.353Z,73.46
2022-10-09T17:21:19.081Z,73.38
2022-10-09T17:23:47.224Z,73.59
2022-10-09T17:26:19.804Z,74.04
2022-10-09T17:28:48.025Z,73.57
2022-10-09T17:31:22.089Z,74.55
2022-10-09T17:33:55.533Z,73.87
2022-10-09T17:36:26.029Z,73.94
2022-10-09T17:38:53.887Z,73.84
2022-10-09T17:41:26.485Z,74.17
2022-10-09T17:43:55.610Z,74.00
2022-10-09T17:46:24.146Z,74.24
2022-10-09T17:48:53.494Z,74.09
2022-10-09T17:51:25.469Z,74.35
2022-10-09T17:53:54.556Z,74.51
2022-10-09T17:56:22.444Z,74.38
2022-10-09T17:58:50.301Z,74.26
2022-10-09T18:01:18.362Z,74.46
2022-10-09T18:03:46.184Z,74.27
2022-10-09T18:06:18.792Z,74.59
2022-10-09T18:08:47.029Z,74.13
2022-10-09T18:11:16.893Z,74.37
2022-10-09T18:13:45.803Z,74.32
2022-10-09T18:16:16.459Z,74.24
2022-10-09T18:18:44.899Z,74.01
2022-10-09T18:21:17.022Z,74.00
2022-10-09T18:23:46.309Z,74.05
2022-10-09T18:26:17.056Z,74.38
2022-10-09T18:28:48.225Z,74.19
2022-10-09T18:31:19.504Z,74.51
2022-10-09T18:33:47.356Z,74.07
2022-10-09T18:36:20.558Z,74.78
2022-10-09T18:38:53.913Z,75.00
2022-10-09T18:41:23.258Z,74.54
2022-10-09T18:43:51.711Z,74.29
2022-10-09T18:46:25.980Z,74.88
2022-10-09T18:48:55.262Z,74.40
2022-10-09T18:51:26.547Z,74.28
2022-10-09T18:53:58.522Z,74.29
2022-10-09T18:56:26.247Z,74.12
2022-10-09T18:58:53.725Z,74.16
2022-10-09T19:01:21.285Z,74.13
2022-10-09T19:03:50.166Z,74.14
2022-10-09T19:06:19.295Z,73.93
2022-10-09T19:08:47.121Z,73.91
2022-10-09T19:11:17.074Z,73.80
2022-10-09T19:13:45.342Z,73.98
2022-10-09T19:16:12.937Z,73.89
2022-10-09T19:18:40.576Z,74.02
2022-10-09T19:21:13.415Z,73.92
2022-10-09T19:23:41.547Z,73.73
2022-10-09T19:26:09.090Z,73.77
2022-10-09T19:28:38.680Z,73.86
2022-10-09T19:31:08.146Z,73.80
2022-10-09T19:33:36.051Z,73.65
2022-10-09T19:36:04.233Z,73.75
2022-10-09T19:38:31.902Z,73.37
2022-10-09T19:41:11.377Z,74.49
2022-10-09T19:43:39.006Z,73.72
2022-10-09T19:46:09.614Z,73.84
2022-10-09T19:48:37.356Z,73.76
2022-10-09T19:51:09.755Z,73.76
2022-10-09T19:53:37.702Z,73.65
2022-10-09T19:56:33.155Z,74.48
2022-10-09T19:59:04.216Z,73.68
2022-10-09T20:01:35.488Z,73.69
2022-10-09T20:04:07.909Z,73.62
2022-10-09T20:06:40.955Z,73.88
2022-10-09T20:09:10.023Z,73.49
2022-10-09T20:11:37.927Z,73.43
2022-10-09T20:14:06.173Z,73.36
2022-10-09T20:16:33.886Z,73.41
2022-10-09T20:19:02.547Z,73.34
2022-10-09T20:21:32.633Z,73.38
2022-10-09T20:24:01.410Z,73.28
2022-10-09T20:26:31.514Z,73.22
2022-10-09T20:29:01.973Z,73.32
2022-10-09T20:31:30.774Z,73.47
2022-10-09T20:33:58.582Z,73.46
2022-10-09T20:36:32.603Z,73.74
2022-10-09T20:39:03.248Z,73.52
2022-10-09T20:41:31.961Z,73.57
2022-10-09T20:44:01.284Z,73.93
2022-10-09T20:46:31.320Z,73.78
2022-10-09T20:48:59.061Z,73.72
2022-10-09T20:51:29.447Z,73.78
2022-10-09T20:54:01.302Z,74.38
2022-10-09T20:56:30.845Z,73.79
2022-10-09T20:59:00.048Z,73.45
2022-10-09T21:01:28.808Z,73.46
2022-10-09T21:03:59.132Z,73.46
2022-10-09T21:06:27.125Z,73.45
2022-10-09T21:08:55.255Z,73.54
2022-10-09T21:11:25.840Z,73.41
2022-10-09T21:13:53.642Z,73.76
2022-10-09T21:16:24.204Z,73.88
2022-10-09T21:18:57.612Z,74.10
2022-10-09T21:21:25.663Z,73.68
2022-10-09T21:23:54.908Z,73.42
2022-10-09T21:26:23.457Z,73.26
2022-10-09T21:28:55.458Z,73.31
2022-10-09T21:31:28.674Z,72.93
2022-10-09T21:33:57.523Z,72.86
2022-10-09T21:36:36.814Z,73.24
2022-10-09T21:39:06.449Z,72.38
2022-10-09T21:41:35.330Z,72.14
2022-10-09T21:44:03.670Z,71.59
2022-10-09T21:46:31.238Z,71.66
2022-10-09T21:48:59.146Z,71.63
2022-10-09T21:51:27.852Z,71.45
2022-10-09T21:53:55.687Z,71.48
2022-10-09T21:56:23.402Z,71.12
2022-10-09T21:58:51.216Z,71.10
2022-10-09T22:01:18.948Z,71.20
2022-10-09T22:03:46.432Z,70.85
2022-10-09T22:06:19.271Z,70.72
2022-10-09T22:08:47.997Z,70.41
2022-10-09T22:11:16.216Z,70.30
2022-10-09T22:13:43.792Z,70.29
2022-10-09T22:16:13.962Z,70.52
2022-10-09T22:18:41.967Z,70.11
2022-10-09T22:21:15.106Z,69.70
2022-10-09T22:23:42.773Z,69.64
2022-10-09T22:26:19.595Z,69.76
2022-10-09T22:28:47.167Z,69.71
2022-10-09T22:31:18.001Z,70.01
2022-10-09T22:33:50.775Z,69.88
2022-10-09T22:36:20.611Z,69.91
2022-10-09T22:38:48.371Z,69.52
2022-10-09T22:41:18.302Z,69.45
2022-10-09T22:43:47.451Z,69.71
2022-10-09T22:46:21.030Z,69.68
2022-10-09T22:48:48.587Z,69.49
2022-10-09T22:51:17.815Z,69.45
2022-10-09T22:53:46.036Z,69.41
2022-10-09T22:56:25.445Z,69.55
2022-10-09T22:58:54.051Z,68.97
2022-10-09T23:01:30.067Z,69.25
2022-10-09T23:03:59.355Z,68.81
2022-10-09T23:06:27.115Z,68.76
2022-10-09T23:08:54.833Z,68.73
2022-10-09T23:11:23.383Z,68.62
2022-10-09T23:13:55.619Z,68.85
2022-10-09T23:16:24.204Z,68.92
2022-10-09T23:18:51.689Z,69.29
2022-10-09T23:21:20.962Z,69.26
2022-10-09T23:23:49.279Z,68.79
2022-10-09T23:26:20.251Z,69.04
2022-10-09T23:28:56.222Z,68.79
2022-10-09T23:31:24.331Z,68.41
2022-10-09T23:33:52.107Z,68.37
2022-10-09T23:36:21.741Z,68.30
2022-10-09T23:38:50.146Z,68.24
2022-10-09T23:41:20.391Z,68.46
2022-10-09T23:43:48.457Z,68.50
2022-10-09T23:46:23.534Z,68.19
2022-10-09T23:48:52.103Z,68.11
2022-10-09T23:51:21.142Z,68.54
2022-10-09T23:53:50.237Z,68.30
2022-10-09T23:56:18.993Z,67.87
2022-10-09T23:58:47.003Z,67.81
